sensor_id;sensor_type;location;lat;lon;timestamp;P1;durP1;ratioP1;P2;durP2;ratioP2
8636;SDS011;4356;49.068;8.658;2022-12-29T00:01:34;1.53;;;1.43;;
8636;SDS011;4356;49.068;8.658;2022-12-29T00:04:01;1.27;;;0.90;;
8636;SDS011;4356;49.068;8.658;2022-12-29T00:06:27;3.97;;;1.30;;
8636;SDS011;4356;49.068;8.658;2022-12-29T00:08:53;1.00;;;1.00;;
8636;SDS011;4356;49.068;8.658;2022-12-29T00:11:20;1.00;;;1.00;;
8636;SDS011;4356;49.068;8.658;2022-12-29T00:13:47;1.47;;;1.47;;
8636;SDS011;4356;49.068;8.658;2022-12-29T00:16:32;0.90;;;0.90;;
8636;SDS011;4356;49.068;8.658;2022-12-29T00:18:59;0.90;;;0.90;;
8636;SDS011;4356;49.068;8.658;2022-12-29T00:21:25;1.00;;;1.00;;
8636;SDS011;4356;49.068;8.658;2022-12-29T00:24:14;0.80;;;0.80;;
8636;SDS011;4356;49.068;8.658;2022-12-29T00:26:53;1.37;;;1.27;;
8636;SDS011;4356;49.068;8.658;2022-12-29T00:29:39;1.07;;;1.07;;
8636;SDS011;4356;49.068;8.658;2022-12-29T00:32:23;2.30;;;0.80;;
8636;SDS011;4356;49.068;8.658;2022-12-29T00:35:08;1.40;;;0.80;;
8636;SDS011;4356;49.068;8.658;2022-12-29T00:37:42;1.67;;;0.93;;
8636;SDS011;4356;49.068;8.658;2022-12-29T00:40:29;2.13;;;0.97;;
8636;SDS011;4356;49.068;8.658;2022-12-29T00:43:13;0.77;;;0.77;;
8636;SDS011;4356;49.068;8.658;2022-12-29T00:45:57;1.20;;;1.17;;
8636;SDS011;4356;49.068;8.658;2022-12-29T00:48:23;1.10;;;1.00;;
8636;SDS011;4356;49.068;8.658;2022-12-29T00:51:07;1.00;;;0.90;;
8636;SDS011;4356;49.068;8.658;2022-12-29T00:53:34;3.17;;;1.10;;
8636;SDS011;4356;49.068;8.658;2022-12-29T00:56:00;0.73;;;0.73;;
8636;SDS011;4356;49.068;8.658;2022-12-29T00:58:29;0.50;;;0.50;;
8636;SDS011;4356;49.068;8.658;2022-12-29T01:01:02;0.90;;;0.90;;
8636;SDS011;4356;49.068;8.658;2022-12-29T01:03:29;1.10;;;1.10;;
8636;SDS011;4356;49.068;8.658;2022-12-29T01:05:55;2.73;;;1.40;;
8636;SDS011;4356;49.068;8.658;2022-12-29T01:08:21;0.73;;;0.73;;
8636;SDS011;4356;49.068;8.658;2022-12-29T01:10:57;3.00;;;1.27;;
8636;SDS011;4356;49.068;8.658;2022-12-29T01:13:26;0.93;;;0.93;;
8636;SDS011;4356;49.068;8.658;2022-12-29T01:15:52;0.70;;;0.70;;
8636;SDS011;4356;49.068;8.658;2022-12-29T01:18:19;1.07;;;1.07;;
8636;SDS011;4356;49.068;8.658;2022-12-29T01:20:46;2.50;;;1.17;;
8636;SDS011;4356;49.068;8.658;2022-12-29T01:23:11;1.17;;;1.13;;
8636;SDS011;4356;49.068;8.658;2022-12-29T01:25:37;1.20;;;1.10;;
8636;SDS011;4356;49.068;8.658;2022-12-29T01:28:03;1.30;;;1.30;;
8636;SDS011;4356;49.068;8.658;2022-12-29T01:30:29;1.20;;;1.10;;
8636;SDS011;4356;49.068;8.658;2022-12-29T01:32:55;1.33;;;1.27;;
8636;SDS011;4356;49.068;8.658;2022-12-29T01:35:20;1.57;;;1.13;;
8636;SDS011;4356;49.068;8.658;2022-12-29T01:37:46;1.30;;;1.30;;
8636;SDS011;4356;49.068;8.658;2022-12-29T01:40:12;2.47;;;1.20;;
8636;SDS011;4356;49.068;8.658;2022-12-29T01:42:38;1.47;;;1.30;;
8636;SDS011;4356;49.068;8.658;2022-12-29T01:45:13;3.13;;;1.43;;
8636;SDS011;4356;49.068;8.658;2022-12-29T01:47:41;0.87;;;0.87;;
8636;SDS011;4356;49.068;8.658;2022-12-29T01:53:06;0.83;;;0.83;;
8636;SDS011;4356;49.068;8.658;2022-12-29T01:55:54;1.90;;;1.20;;
8636;SDS011;4356;49.068;8.658;2022-12-29T01:58:31;1.20;;;1.20;;
8636;SDS011;4356;49.068;8.658;2022-12-29T02:01:00;1.20;;;1.20;;
8636;SDS011;4356;49.068;8.658;2022-12-29T02:03:26;1.00;;;1.00;;
8636;SDS011;4356;49.068;8.658;2022-12-29T02:05:58;1.53;;;1.43;;
8636;SDS011;4356;49.068;8.658;2022-12-29T02:08:29;1.60;;;1.50;;
8636;SDS011;4356;49.068;8.658;2022-12-29T02:10:56;1.57;;;1.50;;
8636;SDS011;4356;49.068;8.658;2022-12-29T02:13:26;2.87;;;1.17;;
8636;SDS011;4356;49.068;8.658;2022-12-29T02:18:51;1.50;;;1.40;;
8636;SDS011;4356;49.068;8.658;2022-12-29T02:32:59;1.50;;;1.40;;
8636;SDS011;4356;49.068;8.658;2022-12-29T02:44:28;1.63;;;1.53;;
8636;SDS011;4356;49.068;8.658;2022-12-29T02:49:42;0.97;;;0.97;;
8636;SDS011;4356;49.068;8.658;2022-12-29T02:52:20;1.27;;;1.10;;
8636;SDS011;4356;49.068;8.658;2022-12-29T02:54:55;1.10;;;1.10;;
8636;SDS011;4356;49.068;8.658;2022-12-29T02:59:47;1.37;;;1.30;;
8636;SDS011;4356;49.068;8.658;2022-12-29T03:07:52;1.23;;;1.13;;
8636;SDS011;4356;49.068;8.658;2022-12-29T03:10:46;1.97;;;0.60;;
8636;SDS011;4356;49.068;8.658;2022-12-29T03:18:47;0.93;;;0.93;;
8636;SDS011;4356;49.068;8.658;2022-12-29T03:24:10;1.73;;;1.03;;
8636;SDS011;4356;49.068;8.658;2022-12-29T03:26:36;0.87;;;0.83;;
8636;SDS011;4356;49.068;8.658;2022-12-29T03:29:03;1.17;;;0.90;;
8636;SDS011;4356;49.068;8.658;2022-12-29T03:31:33;0.70;;;0.70;;
8636;SDS011;4356;49.068;8.658;2022-12-29T03:34:00;1.00;;;1.00;;
8636;SDS011;4356;49.068;8.658;2022-12-29T03:36:48;1.60;;;1.50;;
8636;SDS011;4356;49.068;8.658;2022-12-29T03:39:19;1.03;;;1.03;;
8636;SDS011;4356;49.068;8.658;2022-12-29T03:41:48;2.93;;;1.53;;
8636;SDS011;4356;49.068;8.658;2022-12-29T03:44:17;1.10;;;1.10;;
8636;SDS011;4356;49.068;8.658;2022-12-29T03:46:43;1.10;;;0.90;;
8636;SDS011;4356;49.068;8.658;2022-12-29T03:49:09;1.00;;;0.97;;
8636;SDS011;4356;49.068;8.658;2022-12-29T03:51:34;0.97;;;0.90;;
8636;SDS011;4356;49.068;8.658;2022-12-29T03:54:00;0.60;;;0.60;;
8636;SDS011;4356;49.068;8.658;2022-12-29T03:56:26;0.80;;;0.80;;
8636;SDS011;4356;49.068;8.658;2022-12-29T03:58:52;1.40;;;0.93;;
8636;SDS011;4356;49.068;8.658;2022-12-29T04:01:17;1.20;;;1.10;;
8636;SDS011;4356;49.068;8.658;2022-12-29T04:03:43;2.43;;;1.10;;
8636;SDS011;4356;49.068;8.658;2022-12-29T04:06:09;0.97;;;0.97;;
8636;SDS011;4356;49.068;8.658;2022-12-29T04:08:34;1.60;;;1.00;;
8636;SDS011;4356;49.068;8.658;2022-12-29T04:11:00;0.77;;;0.77;;
8636;SDS011;4356;49.068;8.658;2022-12-29T04:13:26;1.27;;;1.10;;
8636;SDS011;4356;49.068;8.658;2022-12-29T04:15:51;0.87;;;0.87;;
8636;SDS011;4356;49.068;8.658;2022-12-29T04:18:17;1.37;;;0.97;;
8636;SDS011;4356;49.068;8.658;2022-12-29T04:20:44;0.53;;;0.53;;
8636;SDS011;4356;49.068;8.658;2022-12-29T04:23:25;0.73;;;0.73;;
8636;SDS011;4356;49.068;8.658;2022-12-29T04:25:51;0.60;;;0.60;;
8636;SDS011;4356;49.068;8.658;2022-12-29T04:28:17;0.80;;;0.80;;
8636;SDS011;4356;49.068;8.658;2022-12-29T04:30:43;0.67;;;0.67;;
8636;SDS011;4356;49.068;8.658;2022-12-29T04:33:09;2.60;;;1.20;;
8636;SDS011;4356;49.068;8.658;2022-12-29T04:35:35;0.70;;;0.70;;
8636;SDS011;4356;49.068;8.658;2022-12-29T04:38:00;0.87;;;0.87;;
8636;SDS011;4356;49.068;8.658;2022-12-29T04:40:26;1.20;;;1.10;;
8636;SDS011;4356;49.068;8.658;2022-12-29T04:42:52;1.20;;;1.20;;
8636;SDS011;4356;49.068;8.658;2022-12-29T04:45:18;0.40;;;0.40;;
8636;SDS011;4356;49.068;8.658;2022-12-29T04:47:44;0.97;;;0.97;;
8636;SDS011;4356;49.068;8.658;2022-12-29T04:50:09;0.90;;;0.90;;
8636;SDS011;4356;49.068;8.658;2022-12-29T04:52:35;0.60;;;0.60;;
8636;SDS011;4356;49.068;8.658;2022-12-29T04:55:01;0.60;;;0.60;;
8636;SDS011;4356;49.068;8.658;2022-12-29T04:57:27;0.90;;;0.90;;
8636;SDS011;4356;49.068;8.658;2022-12-29T04:59:52;1.00;;;1.00;;
8636;SDS011;4356;49.068;8.658;2022-12-29T05:02:18;1.00;;;1.00;;
8636;SDS011;4356;49.068;8.658;2022-12-29T05:04:44;0.70;;;0.70;;
8636;SDS011;4356;49.068;8.658;2022-12-29T05:07:11;0.97;;;0.97;;
8636;SDS011;4356;49.068;8.658;2022-12-29T05:09:37;0.97;;;0.97;;
8636;SDS011;4356;49.068;8.658;2022-12-29T05:12:03;0.90;;;0.90;;
8636;SDS011;4356;49.068;8.658;2022-12-29T05:14:29;1.33;;;1.00;;
8636;SDS011;4356;49.068;8.658;2022-12-29T05:16:54;0.80;;;0.80;;
8636;SDS011;4356;49.068;8.658;2022-12-29T05:19:20;0.77;;;0.77;;
8636;SDS011;4356;49.068;8.658;2022-12-29T05:21:46;0.57;;;0.50;;
8636;SDS011;4356;49.068;8.658;2022-12-29T05:24:11;0.83;;;0.83;;
8636;SDS011;4356;49.068;8.658;2022-12-29T05:26:37;0.90;;;0.90;;
8636;SDS011;4356;49.068;8.658;2022-12-29T05:29:03;0.90;;;0.87;;
8636;SDS011;4356;49.068;8.658;2022-12-29T05:31:29;0.50;;;0.50;;
8636;SDS011;4356;49.068;8.658;2022-12-29T05:33:54;0.53;;;0.53;;
8636;SDS011;4356;49.068;8.658;2022-12-29T05:36:20;0.80;;;0.80;;
8636;SDS011;4356;49.068;8.658;2022-12-29T05:38:46;1.07;;;1.00;;
8636;SDS011;4356;49.068;8.658;2022-12-29T05:41:12;1.10;;;1.03;;
8636;SDS011;4356;49.068;8.658;2022-12-29T05:43:37;0.80;;;0.80;;
8636;SDS011;4356;49.068;8.658;2022-12-29T05:46:03;0.90;;;0.90;;
8636;SDS011;4356;49.068;8.658;2022-12-29T05:48:29;4.40;;;0.80;;
8636;SDS011;4356;49.068;8.658;2022-12-29T05:50:55;2.10;;;1.20;;
8636;SDS011;4356;49.068;8.658;2022-12-29T05:53:20;0.53;;;0.53;;
8636;SDS011;4356;49.068;8.658;2022-12-29T05:55:46;0.47;;;0.47;;
8636;SDS011;4356;49.068;8.658;2022-12-29T05:58:12;1.00;;;1.00;;
8636;SDS011;4356;49.068;8.658;2022-12-29T06:00:38;1.87;;;1.10;;
8636;SDS011;4356;49.068;8.658;2022-12-29T06:03:04;0.60;;;0.60;;
8636;SDS011;4356;49.068;8.658;2022-12-29T06:05:30;0.90;;;0.90;;
8636;SDS011;4356;49.068;8.658;2022-12-29T06:07:55;1.27;;;1.17;;
8636;SDS011;4356;49.068;8.658;2022-12-29T06:10:21;0.60;;;0.60;;
8636;SDS011;4356;49.068;8.658;2022-12-29T06:12:47;1.00;;;1.00;;
8636;SDS011;4356;49.068;8.658;2022-12-29T06:15:12;0.83;;;0.80;;
8636;SDS011;4356;49.068;8.658;2022-12-29T06:17:39;0.77;;;0.77;;
8636;SDS011;4356;49.068;8.658;2022-12-29T06:20:06;0.73;;;0.73;;
8636;SDS011;4356;49.068;8.658;2022-12-29T06:22:32;0.70;;;0.70;;
8636;SDS011;4356;49.068;8.658;2022-12-29T06:24:58;1.03;;;1.03;;
8636;SDS011;4356;49.068;8.658;2022-12-29T06:27:24;2.87;;;1.07;;
8636;SDS011;4356;49.068;8.658;2022-12-29T06:29:50;1.37;;;0.90;;
8636;SDS011;4356;49.068;8.658;2022-12-29T06:32:16;0.50;;;0.50;;
8636;SDS011;4356;49.068;8.658;2022-12-29T06:34:41;5.60;;;1.00;;
8636;SDS011;4356;49.068;8.658;2022-12-29T06:37:07;0.80;;;0.63;;
8636;SDS011;4356;49.068;8.658;2022-12-29T06:39:32;1.37;;;1.07;;
8636;SDS011;4356;49.068;8.658;2022-12-29T06:41:58;1.13;;;1.13;;
8636;SDS011;4356;49.068;8.658;2022-12-29T06:44:24;1.70;;;1.20;;
8636;SDS011;4356;49.068;8.658;2022-12-29T06:46:50;0.80;;;0.80;;
8636;SDS011;4356;49.068;8.658;2022-12-29T06:49:16;1.17;;;1.13;;
8636;SDS011;4356;49.068;8.658;2022-12-29T06:51:41;0.70;;;0.70;;
8636;SDS011;4356;49.068;8.658;2022-12-29T06:54:07;0.50;;;0.50;;
8636;SDS011;4356;49.068;8.658;2022-12-29T06:56:33;0.90;;;0.90;;
8636;SDS011;4356;49.068;8.658;2022-12-29T06:58:59;0.80;;;0.80;;
8636;SDS011;4356;49.068;8.658;2022-12-29T07:01:27;0.60;;;0.60;;
8636;SDS011;4356;49.068;8.658;2022-12-29T07:03:53;0.83;;;0.83;;
8636;SDS011;4356;49.068;8.658;2022-12-29T07:06:18;1.70;;;1.60;;
8636;SDS011;4356;49.068;8.658;2022-12-29T07:08:44;0.60;;;0.60;;
8636;SDS011;4356;49.068;8.658;2022-12-29T07:11:10;0.73;;;0.73;;
8636;SDS011;4356;49.068;8.658;2022-12-29T07:13:36;1.13;;;0.53;;
8636;SDS011;4356;49.068;8.658;2022-12-29T07:16:05;0.80;;;0.70;;
8636;SDS011;4356;49.068;8.658;2022-12-29T07:18:32;0.70;;;0.70;;
8636;SDS011;4356;49.068;8.658;2022-12-29T07:20:58;1.03;;;1.03;;
8636;SDS011;4356;49.068;8.658;2022-12-29T07:23:24;0.70;;;0.70;;
8636;SDS011;4356;49.068;8.658;2022-12-29T07:25:49;1.03;;;1.03;;
8636;SDS011;4356;49.068;8.658;2022-12-29T07:28:15;0.83;;;0.73;;
8636;SDS011;4356;49.068;8.658;2022-12-29T07:30:41;0.80;;;0.80;;
8636;SDS011;4356;49.068;8.658;2022-12-29T07:33:06;0.97;;;0.97;;
8636;SDS011;4356;49.068;8.658;2022-12-29T07:35:33;1.40;;;1.30;;
8636;SDS011;4356;49.068;8.658;2022-12-29T07:37:59;0.63;;;0.63;;
8636;SDS011;4356;49.068;8.658;2022-12-29T07:40:25;1.07;;;1.07;;
8636;SDS011;4356;49.068;8.658;2022-12-29T07:42:51;0.90;;;0.90;;
8636;SDS011;4356;49.068;8.658;2022-12-29T07:45:16;0.97;;;0.97;;
8636;SDS011;4356;49.068;8.658;2022-12-29T07:47:42;0.93;;;0.93;;
8636;SDS011;4356;49.068;8.658;2022-12-29T07:50:08;0.57;;;0.57;;
8636;SDS011;4356;49.068;8.658;2022-12-29T07:52:33;0.43;;;0.43;;
8636;SDS011;4356;49.068;8.658;2022-12-29T07:54:59;1.20;;;1.20;;
8636;SDS011;4356;49.068;8.658;2022-12-29T07:57:24;0.93;;;0.93;;
8636;SDS011;4356;49.068;8.658;2022-12-29T07:59:50;1.30;;;1.20;;
8636;SDS011;4356;49.068;8.658;2022-12-29T08:02:16;1.63;;;1.00;;
8636;SDS011;4356;49.068;8.658;2022-12-29T08:04:42;0.83;;;0.83;;
8636;SDS011;4356;49.068;8.658;2022-12-29T08:07:07;1.00;;;1.00;;
8636;SDS011;4356;49.068;8.658;2022-12-29T08:09:33;0.60;;;0.60;;
8636;SDS011;4356;49.068;8.658;2022-12-29T08:11:59;0.90;;;0.90;;
8636;SDS011;4356;49.068;8.658;2022-12-29T08:14:25;1.30;;;1.30;;
8636;SDS011;4356;49.068;8.658;2022-12-29T08:16:51;0.80;;;0.80;;
8636;SDS011;4356;49.068;8.658;2022-12-29T08:19:16;0.87;;;0.87;;
8636;SDS011;4356;49.068;8.658;2022-12-29T08:21:42;1.07;;;1.07;;
8636;SDS011;4356;49.068;8.658;2022-12-29T08:24:08;0.50;;;0.50;;
8636;SDS011;4356;49.068;8.658;2022-12-29T08:26:34;1.17;;;1.03;;
8636;SDS011;4356;49.068;8.658;2022-12-29T08:29:00;0.90;;;0.90;;
8636;SDS011;4356;49.068;8.658;2022-12-29T08:31:26;1.00;;;1.00;;
8636;SDS011;4356;49.068;8.658;2022-12-29T08:33:51;0.73;;;0.73;;
8636;SDS011;4356;49.068;8.658;2022-12-29T08:36:17;0.67;;;0.67;;
8636;SDS011;4356;49.068;8.658;2022-12-29T08:38:43;1.13;;;1.03;;
8636;SDS011;4356;49.068;8.658;2022-12-29T08:41:08;1.13;;;1.03;;
8636;SDS011;4356;49.068;8.658;2022-12-29T08:43:34;1.80;;;1.70;;
8636;SDS011;4356;49.068;8.658;2022-12-29T08:46:00;2.27;;;1.10;;
8636;SDS011;4356;49.068;8.658;2022-12-29T08:48:26;2.83;;;1.73;;
8636;SDS011;4356;49.068;8.658;2022-12-29T08:50:52;0.73;;;0.60;;
8636;SDS011;4356;49.068;8.658;2022-12-29T08:53:17;1.03;;;1.03;;
8636;SDS011;4356;49.068;8.658;2022-12-29T08:55:47;1.67;;;1.13;;
8636;SDS011;4356;49.068;8.658;2022-12-29T08:58:19;0.70;;;0.70;;
8636;SDS011;4356;49.068;8.658;2022-12-29T09:00:45;1.13;;;1.13;;
8636;SDS011;4356;49.068;8.658;2022-12-29T09:03:11;0.93;;;0.93;;
8636;SDS011;4356;49.068;8.658;2022-12-29T09:05:37;1.20;;;1.20;;
8636;SDS011;4356;49.068;8.658;2022-12-29T09:08:03;1.33;;;1.23;;
8636;SDS011;4356;49.068;8.658;2022-12-29T09:10:29;1.53;;;1.27;;
8636;SDS011;4356;49.068;8.658;2022-12-29T09:12:55;1.27;;;1.00;;
8636;SDS011;4356;49.068;8.658;2022-12-29T09:15:21;0.80;;;0.80;;
8636;SDS011;4356;49.068;8.658;2022-12-29T09:17:46;1.40;;;1.30;;
8636;SDS011;4356;49.068;8.658;2022-12-29T09:20:13;1.23;;;1.13;;
8636;SDS011;4356;49.068;8.658;2022-12-29T09:22:41;0.80;;;0.80;;
8636;SDS011;4356;49.068;8.658;2022-12-29T09:25:07;1.00;;;1.00;;
8636;SDS011;4356;49.068;8.658;2022-12-29T09:27:34;1.17;;;1.17;;
8636;SDS011;4356;49.068;8.658;2022-12-29T09:30:00;1.17;;;1.17;;
8636;SDS011;4356;49.068;8.658;2022-12-29T09:32:26;1.13;;;1.13;;
8636;SDS011;4356;49.068;8.658;2022-12-29T09:34:54;0.90;;;0.90;;
8636;SDS011;4356;49.068;8.658;2022-12-29T09:37:20;1.50;;;0.80;;
8636;SDS011;4356;49.068;8.658;2022-12-29T09:39:46;1.57;;;0.80;;
8636;SDS011;4356;49.068;8.658;2022-12-29T09:45:10;0.80;;;0.80;;
8636;SDS011;4356;49.068;8.658;2022-12-29T09:47:37;0.97;;;0.97;;
8636;SDS011;4356;49.068;8.658;2022-12-29T09:50:05;0.80;;;0.80;;
8636;SDS011;4356;49.068;8.658;2022-12-29T09:52:53;0.70;;;0.70;;
8636;SDS011;4356;49.068;8.658;2022-12-29T09:55:36;1.30;;;1.30;;
8636;SDS011;4356;49.068;8.658;2022-12-29T09:58:10;1.10;;;1.10;;
8636;SDS011;4356;49.068;8.658;2022-12-29T10:00:47;0.90;;;0.90;;
8636;SDS011;4356;49.068;8.658;2022-12-29T10:03:19;1.23;;;1.13;;
8636;SDS011;4356;49.068;8.658;2022-12-29T10:05:55;1.10;;;1.00;;
8636;SDS011;4356;49.068;8.658;2022-12-29T10:11:26;1.10;;;1.10;;
8636;SDS011;4356;49.068;8.658;2022-12-29T10:14:19;1.00;;;1.00;;
8636;SDS011;4356;49.068;8.658;2022-12-29T10:17:01;1.30;;;1.20;;
8636;SDS011;4356;49.068;8.658;2022-12-29T10:24:54;1.60;;;0.90;;
8636;SDS011;4356;49.068;8.658;2022-12-29T10:27:21;1.00;;;1.00;;
8636;SDS011;4356;49.068;8.658;2022-12-29T10:29:55;0.67;;;0.67;;
8636;SDS011;4356;49.068;8.658;2022-12-29T10:35:24;1.40;;;1.30;;
8636;SDS011;4356;49.068;8.658;2022-12-29T10:38:15;1.90;;;1.23;;
8636;SDS011;4356;49.068;8.658;2022-12-29T10:43:46;1.57;;;1.47;;
8636;SDS011;4356;49.068;8.658;2022-12-29T10:46:17;1.20;;;1.20;;
8636;SDS011;4356;49.068;8.658;2022-12-29T10:48:48;2.33;;;1.37;;
8636;SDS011;4356;49.068;8.658;2022-12-29T10:51:22;2.17;;;1.47;;
8636;SDS011;4356;49.068;8.658;2022-12-29T10:56:52;1.33;;;1.23;;
8636;SDS011;4356;49.068;8.658;2022-12-29T10:59:27;1.33;;;1.23;;
8636;SDS011;4356;49.068;8.658;2022-12-29T11:04:33;3.70;;;1.60;;
8636;SDS011;4356;49.068;8.658;2022-12-29T11:07:10;2.43;;;1.13;;
8636;SDS011;4356;49.068;8.658;2022-12-29T11:09:37;2.77;;;1.20;;
8636;SDS011;4356;49.068;8.658;2022-12-29T11:17:45;1.40;;;1.20;;
8636;SDS011;4356;49.068;8.658;2022-12-29T11:20:19;0.90;;;0.90;;
8636;SDS011;4356;49.068;8.658;2022-12-29T11:23:00;0.93;;;0.80;;
8636;SDS011;4356;49.068;8.658;2022-12-29T11:25:28;0.77;;;0.77;;
8636;SDS011;4356;49.068;8.658;2022-12-29T11:28:16;1.33;;;1.20;;
8636;SDS011;4356;49.068;8.658;2022-12-29T11:30:41;0.70;;;0.70;;
8636;SDS011;4356;49.068;8.658;2022-12-29T11:33:08;1.10;;;1.10;;
8636;SDS011;4356;49.068;8.658;2022-12-29T11:35:35;0.90;;;0.90;;
8636;SDS011;4356;49.068;8.658;2022-12-29T11:38:06;1.40;;;1.30;;
8636;SDS011;4356;49.068;8.658;2022-12-29T11:40:46;0.83;;;0.83;;
8636;SDS011;4356;49.068;8.658;2022-12-29T11:43:31;0.60;;;0.60;;
8636;SDS011;4356;49.068;8.658;2022-12-29T11:46:00;1.87;;;1.20;;
8636;SDS011;4356;49.068;8.658;2022-12-29T11:48:29;1.33;;;0.90;;
8636;SDS011;4356;49.068;8.658;2022-12-29T11:50:59;0.83;;;0.83;;
8636;SDS011;4356;49.068;8.658;2022-12-29T11:53:26;1.10;;;1.10;;
8636;SDS011;4356;49.068;8.658;2022-12-29T11:56:02;0.83;;;0.80;;
8636;SDS011;4356;49.068;8.658;2022-12-29T11:58:40;1.07;;;1.07;;
8636;SDS011;4356;49.068;8.658;2022-12-29T12:01:10;1.13;;;1.13;;
8636;SDS011;4356;49.068;8.658;2022-12-29T12:04:02;1.30;;;1.30;;
8636;SDS011;4356;49.068;8.658;2022-12-29T12:06:30;0.57;;;0.57;;
8636;SDS011;4356;49.068;8.658;2022-12-29T12:09:06;1.13;;;1.13;;
8636;SDS011;4356;49.068;8.658;2022-12-29T12:11:40;2.77;;;1.20;;
8636;SDS011;4356;49.068;8.658;2022-12-29T12:14:20;2.07;;;1.23;;
8636;SDS011;4356;49.068;8.658;2022-12-29T12:16:51;1.20;;;1.10;;
8636;SDS011;4356;49.068;8.658;2022-12-29T12:19:38;2.10;;;1.27;;
8636;SDS011;4356;49.068;8.658;2022-12-29T12:25:04;1.03;;;0.70;;
8636;SDS011;4356;49.068;8.658;2022-12-29T12:27:49;1.07;;;1.00;;
8636;SDS011;4356;49.068;8.658;2022-12-29T12:30:31;1.30;;;0.90;;
8636;SDS011;4356;49.068;8.658;2022-12-29T12:33:10;0.53;;;0.53;;
8636;SDS011;4356;49.068;8.658;2022-12-29T12:38:54;0.60;;;0.60;;
8636;SDS011;4356;49.068;8.658;2022-12-29T12:44:38;0.57;;;0.57;;
8636;SDS011;4356;49.068;8.658;2022-12-29T12:49:58;0.73;;;0.73;;
8636;SDS011;4356;49.068;8.658;2022-12-29T12:58:40;0.60;;;0.60;;
8636;SDS011;4356;49.068;8.658;2022-12-29T13:04:12;0.50;;;0.50;;
8636;SDS011;4356;49.068;8.658;2022-12-29T13:09:29;0.87;;;0.87;;
8636;SDS011;4356;49.068;8.658;2022-12-29T13:12:32;0.77;;;0.77;;
8636;SDS011;4356;49.068;8.658;2022-12-29T13:15:14;0.83;;;0.83;;
8636;SDS011;4356;49.068;8.658;2022-12-29T13:18:18;0.73;;;0.73;;
8636;SDS011;4356;49.068;8.658;2022-12-29T13:21:02;0.83;;;0.83;;
8636;SDS011;4356;49.068;8.658;2022-12-29T13:23:38;1.43;;;1.33;;
8636;SDS011;4356;49.068;8.658;2022-12-29T13:26:46;1.37;;;0.80;;
8636;SDS011;4356;49.068;8.658;2022-12-29T13:29:35;0.53;;;0.53;;
8636;SDS011;4356;49.068;8.658;2022-12-29T13:38:09;1.30;;;1.20;;
8636;SDS011;4356;49.068;8.658;2022-12-29T13:40:49;1.03;;;0.93;;
8636;SDS011;4356;49.068;8.658;2022-12-29T13:43:20;1.17;;;1.17;;
8636;SDS011;4356;49.068;8.658;2022-12-29T13:45:59;0.90;;;0.73;;
8636;SDS011;4356;49.068;8.658;2022-12-29T13:48:40;0.60;;;0.50;;
8636;SDS011;4356;49.068;8.658;2022-12-29T13:51:19;0.80;;;0.80;;
8636;SDS011;4356;49.068;8.658;2022-12-29T13:56:44;0.60;;;0.60;;
8636;SDS011;4356;49.068;8.658;2022-12-29T14:04:55;0.70;;;0.70;;
8636;SDS011;4356;49.068;8.658;2022-12-29T14:07:23;1.13;;;1.10;;
8636;SDS011;4356;49.068;8.658;2022-12-29T14:09:50;0.60;;;0.60;;
8636;SDS011;4356;49.068;8.658;2022-12-29T14:12:22;0.63;;;0.60;;
8636;SDS011;4356;49.068;8.658;2022-12-29T14:15:02;0.87;;;0.70;;
8636;SDS011;4356;49.068;8.658;2022-12-29T14:17:33;0.50;;;0.50;;
8636;SDS011;4356;49.068;8.658;2022-12-29T14:20:00;1.70;;;0.67;;
8636;SDS011;4356;49.068;8.658;2022-12-29T14:22:27;0.63;;;0.60;;
8636;SDS011;4356;49.068;8.658;2022-12-29T14:24:53;1.57;;;1.07;;
8636;SDS011;4356;49.068;8.658;2022-12-29T14:29:46;0.80;;;0.80;;
8636;SDS011;4356;49.068;8.658;2022-12-29T14:35:00;0.90;;;0.90;;
8636;SDS011;4356;49.068;8.658;2022-12-29T14:37:46;1.63;;;0.70;;
8636;SDS011;4356;49.068;8.658;2022-12-29T14:40:19;0.60;;;0.60;;
8636;SDS011;4356;49.068;8.658;2022-12-29T14:42:51;0.50;;;0.50;;
8636;SDS011;4356;49.068;8.658;2022-12-29T14:47:48;1.07;;;0.87;;
8636;SDS011;4356;49.068;8.658;2022-12-29T14:50:16;0.90;;;0.90;;
8636;SDS011;4356;49.068;8.658;2022-12-29T14:52:57;1.17;;;1.00;;
8636;SDS011;4356;49.068;8.658;2022-12-29T14:55:36;1.83;;;0.80;;
8636;SDS011;4356;49.068;8.658;2022-12-29T14:58:17;0.70;;;0.70;;
8636;SDS011;4356;49.068;8.658;2022-12-29T15:01:14;0.70;;;0.70;;
8636;SDS011;4356;49.068;8.658;2022-12-29T15:03:50;0.70;;;0.67;;
8636;SDS011;4356;49.068;8.658;2022-12-29T15:06:20;2.97;;;0.60;;
8636;SDS011;4356;49.068;8.658;2022-12-29T15:11:32;1.00;;;1.00;;
8636;SDS011;4356;49.068;8.658;2022-12-29T15:16:53;1.17;;;1.03;;
8636;SDS011;4356;49.068;8.658;2022-12-29T15:19:22;0.87;;;0.57;;
8636;SDS011;4356;49.068;8.658;2022-12-29T15:21:50;0.73;;;0.70;;
8636;SDS011;4356;49.068;8.658;2022-12-29T15:24:17;0.63;;;0.60;;
8636;SDS011;4356;49.068;8.658;2022-12-29T15:26:46;2.03;;;1.87;;
8636;SDS011;4356;49.068;8.658;2022-12-29T15:29:39;2.37;;;1.17;;
8636;SDS011;4356;49.068;8.658;2022-12-29T15:32:17;1.00;;;1.00;;
8636;SDS011;4356;49.068;8.658;2022-12-29T15:34:45;1.03;;;0.90;;
8636;SDS011;4356;49.068;8.658;2022-12-29T15:37:23;2.00;;;1.00;;
8636;SDS011;4356;49.068;8.658;2022-12-29T15:39:51;1.57;;;1.47;;
8636;SDS011;4356;49.068;8.658;2022-12-29T15:45:13;0.80;;;0.80;;
8636;SDS011;4356;49.068;8.658;2022-12-29T15:47:41;1.00;;;1.00;;
8636;SDS011;4356;49.068;8.658;2022-12-29T15:50:31;1.27;;;1.10;;
8636;SDS011;4356;49.068;8.658;2022-12-29T15:52:56;2.73;;;1.47;;
8636;SDS011;4356;49.068;8.658;2022-12-29T15:57:58;1.30;;;1.30;;
8636;SDS011;4356;49.068;8.658;2022-12-29T16:00:32;2.17;;;1.03;;
8636;SDS011;4356;49.068;8.658;2022-12-29T16:03:00;1.23;;;0.93;;
8636;SDS011;4356;49.068;8.658;2022-12-29T16:05:33;1.00;;;1.00;;
8636;SDS011;4356;49.068;8.658;2022-12-29T16:08:00;1.00;;;1.00;;
8636;SDS011;4356;49.068;8.658;2022-12-29T16:10:31;4.30;;;1.40;;
8636;SDS011;4356;49.068;8.658;2022-12-29T16:13:50;1.50;;;1.37;;
8636;SDS011;4356;49.068;8.658;2022-12-29T16:15:59;2.10;;;2.00;;
8636;SDS011;4356;49.068;8.658;2022-12-29T16:18:46;2.30;;;1.73;;
8636;SDS011;4356;49.068;8.658;2022-12-29T16:21:23;1.70;;;1.60;;
8636;SDS011;4356;49.068;8.658;2022-12-29T16:23:53;2.70;;;2.13;;
8636;SDS011;4356;49.068;8.658;2022-12-29T16:26:21;0.97;;;0.97;;
8636;SDS011;4356;49.068;8.658;2022-12-29T16:28:59;1.80;;;1.70;;
8636;SDS011;4356;49.068;8.658;2022-12-29T16:31:34;2.30;;;2.10;;
8636;SDS011;4356;49.068;8.658;2022-12-29T16:36:53;3.30;;;1.17;;
8636;SDS011;4356;49.068;8.658;2022-12-29T16:50:37;2.27;;;2.07;;
8636;SDS011;4356;49.068;8.658;2022-12-29T16:53:04;2.47;;;2.27;;
8636;SDS011;4356;49.068;8.658;2022-12-29T16:55:31;11.77;;;10.30;;
8636;SDS011;4356;49.068;8.658;2022-12-29T16:57:57;34.33;;;24.80;;
8636;SDS011;4356;49.068;8.658;2022-12-29T17:00:25;51.17;;;34.83;;
8636;SDS011;4356;49.068;8.658;2022-12-29T17:02:53;29.03;;;19.93;;
8636;SDS011;4356;49.068;8.658;2022-12-29T17:05:22;9.20;;;8.13;;
8636;SDS011;4356;49.068;8.658;2022-12-29T17:07:48;3.83;;;3.53;;
8636;SDS011;4356;49.068;8.658;2022-12-29T17:10:14;3.13;;;1.20;;
8636;SDS011;4356;49.068;8.658;2022-12-29T17:12:40;1.20;;;1.20;;
8636;SDS011;4356;49.068;8.658;2022-12-29T17:17:47;0.83;;;0.83;;
8636;SDS011;4356;49.068;8.658;2022-12-29T17:20:16;0.80;;;0.80;;
8636;SDS011;4356;49.068;8.658;2022-12-29T17:22:42;1.20;;;1.10;;
8636;SDS011;4356;49.068;8.658;2022-12-29T17:25:11;2.20;;;1.10;;
8636;SDS011;4356;49.068;8.658;2022-12-29T17:30:26;1.00;;;1.00;;
8636;SDS011;4356;49.068;8.658;2022-12-29T17:32:55;1.10;;;0.93;;
8636;SDS011;4356;49.068;8.658;2022-12-29T17:35:24;1.00;;;0.83;;
8636;SDS011;4356;49.068;8.658;2022-12-29T17:37:50;2.17;;;1.30;;
8636;SDS011;4356;49.068;8.658;2022-12-29T17:40:17;1.30;;;1.13;;
8636;SDS011;4356;49.068;8.658;2022-12-29T17:42:45;1.30;;;1.20;;
8636;SDS011;4356;49.068;8.658;2022-12-29T17:45:17;0.60;;;0.60;;
8636;SDS011;4356;49.068;8.658;2022-12-29T17:47:45;1.80;;;0.87;;
8636;SDS011;4356;49.068;8.658;2022-12-29T17:50:17;1.20;;;1.10;;
8636;SDS011;4356;49.068;8.658;2022-12-29T17:52:46;2.70;;;1.23;;
8636;SDS011;4356;49.068;8.658;2022-12-29T17:55:17;1.30;;;1.20;;
8636;SDS011;4356;49.068;8.658;2022-12-29T17:57:44;1.77;;;1.10;;
8636;SDS011;4356;49.068;8.658;2022-12-29T18:00:14;3.20;;;1.60;;
8636;SDS011;4356;49.068;8.658;2022-12-29T18:02:40;2.70;;;0.60;;
8636;SDS011;4356;49.068;8.658;2022-12-29T18:05:08;0.90;;;0.90;;